Time;durP1;ratioP1;P1;durP2;ratioP2;P2;SDS_P1;SDS_P2;PMS_P1;PMS_P2;Temp;Humidity;BMP_temperature;BMP_pressure;BME280_temperature;BME280_humidity;BME280_pressure;Samples;Min_cycle;Max_cycle;Signal;HPM_P1;HPM_P2
2022/12/11 00:00:47;;;;;;;76.25;28.05;;;2.10;1.00;;;;;;5049517;28;20683;-86
2022/12/11 00:03:17;;;;;;;62.03;25.10;;;2.10;1.00;;;;;;5043376;28;20190;-86
2022/12/11 00:05:44;;;;;;;63.65;24.92;;;2.10;1.00;;;;;;5043172;28;20625;-85
2022/12/11 00:08:10;;;;;;;68.65;24.50;;;2.10;1.00;;;;;;5047882;28;20214;-86
2022/12/11 00:10:38;;;;;;;58.95;25.77;;;2.10;1.00;;;;;;5046719;28;20189;-87
2022/12/11 00:13:04;;;;;;;55.67;25.00;;;2.10;1.00;;;;;;5051714;28;20272;-86
2022/12/11 00:15:29;;;;;;;67.57;26.35;;;2.10;1.00;;;;;;5047282;28;20247;-87
2022/12/11 00:17:55;;;;;;;56.63;23.07;;;2.10;1.00;;;;;;5047724;28;20189;-86
2022/12/11 00:20:21;;;;;;;55.93;24.80;;;2.10;1.00;;;;;;5047814;28;20194;-86
2022/12/11 00:22:46;;;;;;;58.37;23.50;;;2.10;1.00;;;;;;5038793;28;20692;-86
2022/12/11 00:25:12;;;;;;;61.73;23.20;;;2.10;1.00;;;;;;5050022;28;20210;-86
2022/12/11 00:27:38;;;;;;;59.43;25.60;;;2.10;1.00;;;;;;5051829;28;20613;-86
2022/12/11 00:30:04;;;;;;;70.97;25.73;;;2.10;1.00;;;;;;5051484;28;20225;-86
2022/12/11 00:32:33;;;;;;;54.50;25.05;;;2.20;1.00;;;;;;5050853;28;20282;-86
2022/12/11 00:34:58;;;;;;;62.10;24.08;;;2.20;1.00;;;;;;5052362;28;20177;-86
2022/12/11 00:37:24;;;;;;;59.10;26.23;;;2.20;1.00;;;;;;5054310;28;20685;-87
2022/12/11 00:39:49;;;;;;;50.70;22.23;;;2.20;1.00;;;;;;5049649;28;20174;-87
2022/12/11 00:42:15;;;;;;;69.97;25.27;;;2.10;1.00;;;;;;5044556;28;20208;-86
2022/12/11 00:44:40;;;;;;;66.77;25.60;;;2.20;1.00;;;;;;5049476;28;20217;-86
2022/12/11 00:47:06;;;;;;;50.10;22.40;;;2.20;1.00;;;;;;5050723;28;20209;-86
2022/12/11 00:49:31;;;;;;;57.90;24.83;;;2.20;1.00;;;;;;5051974;28;20178;-86
2022/12/11 00:51:57;;;;;;;52.23;21.83;;;2.20;1.00;;;;;;5051135;28;20228;-86
2022/12/11 00:54:23;;;;;;;53.73;21.70;;;2.20;1.00;;;;;;5048168;28;20201;-86
2022/12/11 00:56:49;;;;;;;56.40;25.60;;;2.30;1.00;;;;;;5039522;28;20206;-86
2022/12/11 00:59:15;;;;;;;57.92;22.02;;;2.30;1.00;;;;;;5042052;28;20193;-86
2022/12/11 01:01:40;;;;;;;50.63;22.43;;;2.30;1.00;;;;;;5048035;28;20189;-86
2022/12/11 01:04:06;;;;;;;62.50;22.27;;;2.30;1.00;;;;;;5049511;28;20186;-86
2022/12/11 01:06:31;;;;;;;54.00;22.77;;;2.30;1.00;;;;;;5051865;28;20288;-86
2022/12/11 01:11:42;;;;;;;59.78;23.05;;;2.30;99.90;;;;;;5049008;28;20234;-87
2022/12/11 01:14:09;;;;;;;55.03;26.23;;;2.30;99.90;;;;;;5046850;28;20264;-86
2022/12/11 01:16:35;;;;;;;53.85;22.50;;;2.30;99.90;;;;;;5044359;28;20639;-87
2022/12/11 01:19:00;;;;;;;51.97;23.60;;;2.30;99.90;;;;;;5045879;28;20182;-86
2022/12/11 01:21:26;;;;;;;55.53;23.40;;;2.30;99.90;;;;;;5046363;28;20221;-87
2022/12/11 01:23:51;;;;;;;46.83;20.63;;;2.30;99.90;;;;;;5048339;28;20182;-86
2022/12/11 01:26:18;;;;;;;49.90;21.67;;;2.30;99.90;;;;;;5046688;28;20221;-86
2022/12/11 01:28:44;;;;;;;43.72;20.15;;;2.30;99.90;;;;;;5049259;28;20432;-85
2022/12/11 01:31:15;;;;;;;44.45;20.65;;;2.30;99.90;;;;;;5049528;28;20238;-87
2022/12/11 01:33:41;;;;;;;42.35;20.15;;;2.40;99.90;;;;;;5048317;28;20212;-85
2022/12/11 01:36:15;;;;;;;45.33;21.80;;;2.40;99.90;;;;;;5044145;28;20721;-85
2022/12/11 01:38:41;;;;;;;39.88;19.42;;;2.40;99.90;;;;;;5039385;28;20447;-86
2022/12/11 01:41:07;;;;;;;42.37;19.30;;;2.40;99.90;;;;;;5043987;28;20677;-86
2022/12/11 01:43:32;;;;;;;41.43;18.83;;;2.40;33.90;;;;;;5045391;28;20182;-86
2022/12/11 01:45:58;;;;;;;46.07;19.63;;;2.40;27.90;;;;;;5052302;28;20462;-86
2022/12/11 01:48:30;;;;;;;45.57;19.20;;;2.50;1.00;;;;;;5050740;28;20204;-86
2022/12/11 01:51:00;;;;;;;37.65;19.63;;;2.50;1.00;;;;;;5049838;28;20214;-86
2022/12/11 01:53:30;;;;;;;45.65;19.95;;;2.50;1.00;;;;;;5042047;28;20198;-86
2022/12/11 01:55:57;;;;;;;42.22;19.95;;;2.50;1.00;;;;;;5047082;28;20228;-86
2022/12/11 01:58:28;;;;;;;45.95;20.83;;;2.40;1.00;;;;;;5047645;28;20307;-87
2022/12/11 02:00:54;;;;;;;44.25;20.40;;;2.40;1.00;;;;;;5047683;28;20691;-84
2022/12/11 02:03:20;;;;;;;44.13;20.13;;;2.40;1.00;;;;;;5039198;28;20182;-86
2022/12/11 02:05:46;;;;;;;44.22;19.95;;;2.30;1.00;;;;;;5049291;28;20236;-86
2022/12/11 02:08:11;;;;;;;51.90;22.77;;;2.40;1.00;;;;;;5046560;28;20181;-86
2022/12/11 02:11:13;;;;;;;42.33;18.53;;;2.40;1.00;;;;;;5044535;28;20259;-86
2022/12/11 02:13:56;;;;;;;41.10;19.10;;;2.40;1.00;;;;;;5051630;28;20198;-87
2022/12/11 02:16:49;;;;;;;47.15;19.23;;;2.40;1.00;;;;;;5046796;28;20209;-86
2022/12/11 02:19:44;;;;;;;39.80;16.58;;;2.40;1.00;;;;;;5049888;28;20570;-86
2022/12/11 02:22:46;;;;;;;40.83;16.88;;;2.40;1.00;;;;;;5049137;28;20178;-86
2022/12/11 02:25:33;;;;;;;36.78;16.85;;;2.30;1.00;;;;;;5044983;28;20739;-86
2022/12/11 02:28:37;;;;;;;39.97;16.55;;;2.30;99.90;;;;;;5045664;28;20185;-86
2022/12/11 02:31:11;;;;;;;37.42;17.33;;;2.30;1.00;;;;;;5051932;28;20270;-86
2022/12/11 02:34:00;;;;;;;38.40;17.38;;;2.30;1.00;;;;;;5047113;28;20281;-87
2022/12/11 02:36:30;;;;;;;41.88;19.20;;;2.20;1.00;;;;;;5045439;28;20241;-86
2022/12/11 02:38:57;;;;;;;37.58;17.55;;;2.20;1.00;;;;;;5037093;28;20629;-86
2022/12/11 02:41:24;;;;;;;43.67;18.48;;;2.20;1.00;;;;;;5047260;28;20189;-86
2022/12/11 02:43:52;;;;;;;45.28;20.13;;;2.20;1.00;;;;;;5040165;28;20192;-86
2022/12/11 02:46:20;;;;;;;44.03;19.38;;;2.20;1.00;;;;;;5044573;28;20205;-85
2022/12/11 02:48:50;;;;;;;51.63;20.77;;;2.20;1.00;;;;;;5039608;28;20661;-86
2022/12/11 02:51:20;;;;;;;45.53;18.38;;;2.20;1.00;;;;;;5042316;28;20209;-86
2022/12/11 02:53:47;;;;;;;52.95;19.55;;;2.20;1.00;;;;;;5045600;28;20264;-87
2022/12/11 02:56:19;;;;;;;45.83;19.52;;;2.20;46.90;;;;;;5048337;28;20203;-86
2022/12/11 02:58:49;;;;;;;39.17;18.55;;;2.20;12.00;;;;;;5046966;28;20182;-86
2022/12/11 03:01:15;;;;;;;46.10;18.45;;;2.20;1.00;;;;;;5037665;28;20315;-86
2022/12/11 03:03:41;;;;;;;43.35;19.25;;;2.20;1.00;;;;;;5044738;28;20181;-85
2022/12/11 03:06:09;;;;;;;50.93;21.13;;;2.30;1.00;;;;;;5047381;28;20685;-86
2022/12/11 03:08:35;;;;;;;40.50;19.77;;;2.30;1.00;;;;;;5048856;28;20444;-87
2022/12/11 03:11:00;;;;;;;44.73;19.80;;;2.30;1.00;;;;;;5042532;28;20210;-86
2022/12/11 03:13:26;;;;;;;38.23;17.30;;;2.30;6.30;;;;;;5039695;28;20193;-86
2022/12/11 03:16:06;;;;;;;34.13;17.00;;;2.30;1.00;;;;;;5047473;28;20216;-86
2022/12/11 03:18:32;;;;;;;35.17;16.08;;;2.30;1.00;;;;;;5044669;28;20185;-85
2022/12/11 03:21:25;;;;;;;38.70;16.70;;;2.30;1.00;;;;;;5048525;28;20178;-87
2022/12/11 03:24:06;;;;;;;32.13;15.32;;;2.30;1.00;;;;;;5041484;28;20197;-86
2022/12/11 03:26:39;;;;;;;39.05;14.80;;;2.20;99.90;;;;;;5043622;28;20206;-87
2022/12/11 03:29:19;;;;;;;45.03;15.48;;;2.10;99.90;;;;;;5041369;28;20746;-86
2022/12/11 03:31:55;;;;;;;24.92;13.25;;;2.10;1.00;;;;;;5036021;28;20236;-85
2022/12/11 03:34:37;;;;;;;38.38;15.75;;;2.10;1.00;;;;;;5032469;28;20212;-87
2022/12/11 03:37:04;;;;;;;34.28;16.15;;;2.10;1.00;;;;;;5041461;28;20201;-86
2022/12/11 03:39:34;;;;;;;35.13;17.90;;;2.10;1.00;;;;;;5046948;28;20182;-85
2022/12/11 03:42:06;;;;;;;31.25;15.82;;;2.10;1.00;;;;;;5046778;28;20188;-86
2022/12/11 03:44:34;;;;;;;30.83;15.18;;;2.10;1.00;;;;;;5053077;28;20192;-86
2022/12/11 03:47:02;;;;;;;28.30;15.00;;;2.10;1.00;;;;;;5049063;28;20252;-86
2022/12/11 03:49:33;;;;;;;33.70;16.45;;;2.10;1.00;;;;;;5049899;28;20617;-86
2022/12/11 03:52:00;;;;;;;35.03;14.70;;;2.20;1.00;;;;;;5047728;28;20205;-86
2022/12/11 03:54:27;;;;;;;36.75;16.08;;;2.20;99.90;;;;;;5042824;28;20178;-86
2022/12/11 03:56:55;;;;;;;34.88;17.25;;;2.10;99.90;;;;;;5047438;28;20201;-86
2022/12/11 03:59:21;;;;;;;31.27;15.82;;;2.10;99.90;;;;;;5050028;28;20177;-86
2022/12/11 04:01:46;;;;;;;37.57;16.00;;;2.10;99.90;;;;;;5050903;28;20271;-86
2022/12/11 04:04:12;;;;;;;41.87;18.50;;;2.10;1.00;;;;;;5050705;28;20436;-86
2022/12/11 04:06:37;;;;;;;35.83;17.77;;;2.10;1.00;;;;;;5048645;28;20216;-86
2022/12/11 04:09:03;;;;;;;36.10;17.67;;;2.10;1.00;;;;;;5048999;28;20189;-87
2022/12/11 04:11:34;;;;;;;39.67;15.67;;;2.10;1.00;;;;;;5052056;28;20259;-87
2022/12/11 04:16:52;;;;;;;36.55;15.13;;;2.10;1.00;;;;;;5045803;28;20217;-85
2022/12/11 04:24:58;;;;;;;36.50;16.92;;;2.10;99.90;;;;;;5059328;28;20234;-86
2022/12/11 04:30:12;;;;;;;37.67;16.80;;;2.10;99.90;;;;;;5052667;28;20192;-86
2022/12/11 04:32:38;;;;;;;38.03;17.40;;;2.10;1.00;;;;;;5052458;28;20213;-85
2022/12/11 04:35:06;;;;;;;42.43;17.67;;;2.10;1.00;;;;;;5051806;28;20268;-85
2022/12/11 04:37:31;;;;;;;34.47;16.75;;;2.10;99.90;;;;;;5047438;28;20185;-86
2022/12/11 04:39:57;;;;;;;37.13;16.00;;;2.10;1.00;;;;;;5047545;28;20185;-86
2022/12/11 04:42:22;;;;;;;36.57;17.00;;;2.10;99.90;;;;;;5046077;28;20197;-87
2022/12/11 04:44:48;;;;;;;31.00;16.80;;;2.10;1.00;;;;;;5048567;28;20268;-86
2022/12/11 04:47:13;;;;;;;41.77;17.90;;;2.10;1.00;;;;;;5051834;28;20209;-87
2022/12/11 04:49:39;;;;;;;35.57;17.53;;;2.10;1.00;;;;;;5043095;28;20229;-86
2022/12/11 04:52:04;;;;;;;31.50;17.20;;;2.10;1.00;;;;;;5039017;28;20197;-85
2022/12/11 04:54:31;;;;;;;41.00;17.37;;;2.10;1.00;;;;;;5041460;28;20273;-87
2022/12/11 04:56:56;;;;;;;28.38;15.15;;;2.10;1.00;;;;;;5043047;28;20581;-86
2022/12/11 04:59:22;;;;;;;40.33;16.87;;;2.10;99.90;;;;;;5044158;28;20186;-86
2022/12/11 05:01:47;;;;;;;34.53;16.63;;;2.10;1.00;;;;;;5047387;28;20560;-86
2022/12/11 05:04:13;;;;;;;32.50;17.23;;;2.00;1.00;;;;;;5042519;28;20276;-85
2022/12/11 05:06:39;;;;;;;31.57;16.17;;;2.00;1.00;;;;;;5045717;28;20255;-86
2022/12/11 05:09:04;;;;;;;36.03;15.37;;;2.10;1.00;;;;;;5051832;28;20439;-86
2022/12/11 05:11:30;;;;;;;37.47;16.77;;;2.00;1.00;;;;;;5041637;28;20213;-87
2022/12/11 05:13:55;;;;;;;29.03;14.10;;;2.00;1.00;;;;;;5050770;28;20273;-85
2022/12/11 05:16:21;;;;;;;40.70;17.03;;;2.10;1.00;;;;;;5044673;28;20206;-86
2022/12/11 05:18:46;;;;;;;28.17;15.63;;;2.10;1.00;;;;;;5046473;28;20676;-87
2022/12/11 05:21:14;;;;;;;32.70;14.67;;;2.10;1.00;;;;;;5049702;28;20185;-86
2022/12/11 05:23:40;;;;;;;28.92;15.45;;;2.10;1.00;;;;;;5046279;28;20186;-86
2022/12/11 05:26:09;;;;;;;27.48;13.75;;;2.10;1.00;;;;;;5044068;28;20205;-87
2022/12/11 05:28:37;;;;;;;30.17;14.50;;;2.10;1.00;;;;;;5046076;28;20201;-86
2022/12/11 05:31:10;;;;;;;26.95;14.10;;;2.20;1.00;;;;;;5035426;28;20209;-86
2022/12/11 05:33:36;;;;;;;25.52;12.68;;;2.20;1.00;;;;;;5040709;28;20186;-86
2022/12/11 05:36:02;;;;;;;26.10;13.00;;;2.20;1.00;;;;;;5034737;28;20208;-86
2022/12/11 05:38:28;;;;;;;26.10;12.70;;;2.20;1.00;;;;;;5045711;28;20193;-86
2022/12/11 05:41:07;;;;;;;26.03;12.60;;;2.20;99.90;;;;;;5044818;28;20186;-86
2022/12/11 05:43:34;;;;;;;21.88;11.80;;;2.20;99.90;;;;;;5042231;28;20181;-85
2022/12/11 05:46:08;;;;;;;32.13;13.13;;;2.20;99.90;;;;;;5050418;28;20319;-86
2022/12/11 05:48:34;;;;;;;24.23;12.88;;;2.20;99.90;;;;;;5036986;28;20236;-86
2022/12/11 05:51:01;;;;;;;27.92;13.90;;;2.20;99.90;;;;;;5041873;28;20210;-86
2022/12/11 05:53:28;;;;;;;22.50;11.25;;;2.30;99.90;;;;;;5043733;28;20292;-86
2022/12/11 05:55:54;;;;;;;28.10;13.35;;;2.30;99.90;;;;;;5040237;28;20619;-86
2022/12/11 05:58:20;;;;;;;25.43;12.67;;;2.30;16.00;;;;;;5040760;28;20183;-86
2022/12/11 06:00:46;;;;;;;28.42;13.65;;;2.20;1.00;;;;;;5036742;28;20428;-86
2022/12/11 06:03:12;;;;;;;24.55;10.60;;;2.20;1.00;;;;;;5037737;28;20612;-86
2022/12/11 06:05:41;;;;;;;23.80;13.57;;;2.20;1.00;;;;;;5042464;28;20205;-87
2022/12/11 06:08:07;;;;;;;22.33;11.45;;;2.10;1.00;;;;;;5043814;28;20183;-86
2022/12/11 06:10:33;;;;;;;23.13;13.90;;;2.20;1.00;;;;;;5044644;28;20308;-86
2022/12/11 06:12:59;;;;;;;28.23;12.57;;;2.20;1.00;;;;;;5044514;28;20479;-86
2022/12/11 06:15:24;;;;;;;18.23;12.37;;;2.20;1.00;;;;;;5047033;28;20300;-86
2022/12/11 06:17:50;;;;;;;26.07;11.90;;;2.20;1.00;;;;;;5053161;28;20437;-86
2022/12/11 06:20:15;;;;;;;25.53;12.83;;;2.20;1.00;;;;;;5042997;28;20178;-85
2022/12/11 06:22:41;;;;;;;23.23;11.40;;;2.20;1.00;;;;;;5042406;28;20556;-87
2022/12/11 06:25:07;;;;;;;19.03;11.03;;;2.20;1.00;;;;;;5047942;28;20186;-86
2022/12/11 06:27:32;;;;;;;18.40;11.30;;;2.20;1.00;;;;;;5044765;28;20194;-87
2022/12/11 06:29:58;;;;;;;28.73;12.50;;;2.20;1.00;;;;;;5047890;28;20729;-86
2022/12/11 06:32:23;;;;;;;23.87;11.30;;;2.20;1.00;;;;;;5039986;28;20580;-86
2022/12/11 06:34:49;;;;;;;24.00;13.33;;;2.20;99.90;;;;;;5050857;28;20234;-86
2022/12/11 06:37:14;;;;;;;26.87;12.30;;;2.20;99.90;;;;;;5045266;28;20224;-86
2022/12/11 06:39:40;;;;;;;19.00;10.70;;;2.20;99.90;;;;;;5050643;28;20198;-86
2022/12/11 06:42:05;;;;;;;19.00;10.70;;;2.20;99.90;;;;;;5049763;28;20828;-86
2022/12/11 06:44:31;;;;;;;18.33;10.33;;;2.20;99.90;;;;;;5051702;28;20566;-86
2022/12/11 06:46:57;;;;;;;19.67;11.73;;;2.20;99.90;;;;;;5044516;28;20209;-86
2022/12/11 06:49:22;;;;;;;17.27;10.57;;;2.20;99.90;;;;;;5043567;28;20485;-86
2022/12/11 06:51:48;;;;;;;15.50;9.67;;;2.20;1.00;;;;;;5049771;28;20285;-86
2022/12/11 06:54:14;;;;;;;12.70;8.70;;;2.20;1.00;;;;;;5039470;28;20205;-86
2022/12/11 06:56:39;;;;;;;18.10;9.67;;;2.20;1.00;;;;;;5050290;28;20284;-86
2022/12/11 06:59:06;;;;;;;16.33;9.50;;;2.20;1.00;;;;;;5043768;28;20677;-87
2022/12/11 07:01:31;;;;;;;17.08;9.27;;;2.20;1.00;;;;;;5051345;28;20661;-86
2022/12/11 07:03:58;;;;;;;17.03;9.27;;;2.10;99.90;;;;;;5042676;28;20190;-85
2022/12/11 07:06:26;;;;;;;18.55;10.18;;;2.10;1.00;;;;;;5036938;28;20202;-86
2022/12/11 07:08:51;;;;;;;15.27;7.93;;;2.10;1.00;;;;;;5047732;28;20740;-86
2022/12/11 07:11:18;;;;;;;19.53;10.40;;;2.10;99.90;;;;;;5040350;28;20293;-87
2022/12/11 07:13:44;;;;;;;18.25;9.30;;;2.10;99.90;;;;;;5037562;28;20497;-86
2022/12/11 07:16:12;;;;;;;16.50;9.20;;;2.10;99.90;;;;;;5045666;28;20202;-84
2022/12/11 07:18:42;;;;;;;16.50;8.95;;;2.10;59.00;;;;;;5049593;28;20189;-87
2022/12/11 07:21:10;;;;;;;16.02;9.55;;;2.00;58.50;;;;;;5055257;28;20173;-85
2022/12/11 07:23:36;;;;;;;18.75;9.18;;;2.10;99.90;;;;;;5050343;28;20712;-85
2022/12/11 07:26:08;;;;;;;14.80;8.50;;;2.20;99.90;;;;;;5051833;28;20304;-85
2022/12/11 07:28:35;;;;;;;13.25;8.20;;;2.20;1.00;;;;;;5039841;28;20229;-86
2022/12/11 07:31:05;;;;;;;16.95;9.25;;;2.30;1.00;;;;;;5044738;28;20193;-83
2022/12/11 07:33:30;;;;;;;15.68;8.48;;;2.30;99.90;;;;;;5049539;28;20485;-83
2022/12/11 07:36:00;;;;;;;14.30;8.67;;;2.30;99.90;;;;;;5052525;28;20280;-85
2022/12/11 07:38:26;;;;;;;14.00;8.13;;;2.40;99.90;;;;;;5046828;28;20188;-85
2022/12/11 07:40:51;;;;;;;14.10;8.73;;;2.50;99.90;;;;;;5048727;28;20568;-85
2022/12/11 07:43:17;;;;;;;14.23;9.57;;;2.50;1.00;;;;;;5041843;28;20186;-85
2022/12/11 07:45:42;;;;;;;15.87;8.87;;;2.50;99.90;;;;;;5047254;28;20978;-85
2022/12/11 07:48:08;;;;;;;14.07;8.73;;;2.50;99.90;;;;;;5048727;28;20232;-85
2022/12/11 07:50:33;;;;;;;12.60;9.30;;;2.50;99.90;;;;;;5037015;28;20666;-85
2022/12/11 07:52:58;;;;;;;14.77;8.10;;;2.50;99.90;;;;;;5044060;28;20258;-85
2022/12/11 07:55:24;;;;;;;16.20;10.40;;;2.50;99.90;;;;;;5046640;28;20584;-85
2022/12/11 07:57:49;;;;;;;18.23;10.00;;;2.60;99.90;;;;;;5048051;28;20185;-85
2022/12/11 08:00:16;;;;;;;16.97;10.23;;;2.60;99.90;;;;;;5048068;28;20186;-85
2022/12/11 08:02:41;;;;;;;16.80;11.10;;;2.60;44.40;;;;;;5046048;28;20213;-86
2022/12/11 08:05:07;;;;;;;17.20;10.07;;;2.60;48.90;;;;;;5044824;28;20189;-85
2022/12/11 08:07:34;;;;;;;18.13;11.37;;;2.60;17.80;;;;;;5042700;28;20237;-85
2022/12/11 08:10:00;;;;;;;18.08;11.32;;;2.50;38.60;;;;;;5054390;28;20439;-86
2022/12/11 08:12:25;;;;;;;13.50;9.50;;;2.50;1.00;;;;;;5041465;28;20213;-85
2022/12/11 08:14:51;;;;;;;18.37;10.13;;;2.50;1.00;;;;;;5047826;28;20278;-86
2022/12/11 08:17:16;;;;;;;14.57;10.87;;;2.50;1.00;;;;;;5051096;28;20552;-85
2022/12/11 08:19:42;;;;;;;18.33;12.63;;;2.40;1.00;;;;;;5054808;28;20190;-86
2022/12/11 08:22:07;;;;;;;16.90;9.73;;;2.40;1.00;;;;;;5059015;28;20200;-85
2022/12/11 08:24:33;;;;;;;18.87;11.13;;;2.50;1.00;;;;;;5054560;28;20224;-86
2022/12/11 08:26:58;;;;;;;21.10;12.07;;;2.40;1.00;;;;;;5059360;28;20198;-85
2022/12/11 08:29:24;;;;;;;15.70;10.40;;;2.40;1.00;;;;;;5048204;28;20186;-85
2022/12/11 08:31:49;;;;;;;17.57;11.23;;;2.40;1.00;;;;;;5056912;28;20286;-86
2022/12/11 08:34:15;;;;;;;17.67;10.23;;;2.50;1.00;;;;;;5050074;28;20190;-86
2022/12/11 08:36:41;;;;;;;21.63;11.53;;;2.50;1.00;;;;;;5048353;28;20210;-86
2022/12/11 08:39:06;;;;;;;19.50;10.83;;;2.50;1.00;;;;;;5048071;28;20231;-86
2022/12/11 08:41:32;;;;;;;18.63;10.67;;;2.50;1.00;;;;;;5051277;28;20185;-86
2022/12/11 08:43:59;;;;;;;19.63;12.20;;;2.60;1.00;;;;;;5057316;28;20182;-85
2022/12/11 08:46:30;;;;;;;16.50;10.68;;;2.60;99.90;;;;;;5059398;28;20206;-86
2022/12/11 08:48:56;;;;;;;17.52;11.77;;;2.60;99.90;;;;;;5058848;28;20185;-86
2022/12/11 08:51:24;;;;;;;19.75;11.93;;;2.60;99.90;;;;;;5048334;28;20216;-88
2022/12/11 08:53:50;;;;;;;18.15;10.60;;;2.60;99.90;;;;;;5050762;28;20422;-85
2022/12/11 08:56:19;;;;;;;22.47;12.60;;;2.60;99.90;;;;;;5051616;28;20322;-84
2022/12/11 08:58:45;;;;;;;20.55;12.05;;;2.50;99.90;;;;;;5048396;28;20431;-85
2022/12/11 09:01:24;;;;;;;23.67;11.87;;;2.40;99.90;;;;;;5049657;28;20196;-84
2022/12/11 09:03:51;;;;;;;20.50;12.50;;;2.40;99.90;;;;;;5046605;28;20431;-85
2022/12/11 09:06:19;;;;;;;20.50;12.30;;;2.40;99.90;;;;;;5049086;28;20210;-83
2022/12/11 09:08:46;;;;;;;18.58;11.02;;;2.40;99.90;;;;;;5039550;28;20182;-85
2022/12/11 09:11:14;;;;;;;23.33;12.88;;;2.40;99.90;;;;;;5052318;28;20213;-85
2022/12/11 09:13:41;;;;;;;23.08;12.50;;;2.40;99.90;;;;;;5060185;28;20201;-84
2022/12/11 09:16:09;;;;;;;22.15;10.90;;;2.50;99.90;;;;;;5060534;28;20194;-85
2022/12/11 09:18:36;;;;;;;16.85;10.75;;;2.60;99.90;;;;;;5059023;28;20181;-84
2022/12/11 09:21:07;;;;;;;21.23;11.55;;;2.60;99.90;;;;;;5054251;28;20538;-85
2022/12/11 09:23:33;;;;;;;25.48;12.02;;;2.60;99.90;;;;;;5059831;28;20181;-84
2022/12/11 09:25:58;;;;;;;24.43;12.17;;;2.70;99.90;;;;;;5047602;28;20201;-84
2022/12/11 09:28:24;;;;;;;21.50;12.10;;;2.80;99.90;;;;;;5054827;28;20181;-84
2022/12/11 09:30:51;;;;;;;20.20;12.05;;;2.90;99.90;;;;;;5052951;28;20215;-84
2022/12/11 09:33:17;;;;;;;17.73;10.82;;;2.90;99.90;;;;;;5042883;28;20262;-85
2022/12/11 09:35:42;;;;;;;19.35;10.75;;;3.00;79.40;;;;;;5057803;28;20206;-84
2022/12/11 09:38:08;;;;;;;19.93;11.00;;;3.10;1.50;;;;;;5055155;28;20185;-84
2022/12/11 09:40:42;;;;;;;20.33;11.87;;;3.10;1.00;;;;;;5055610;28;20190;-84
2022/12/11 09:43:27;;;;;;;21.08;12.07;;;3.10;1.00;;;;;;5046381;28;20308;-85
2022/12/11 09:45:55;;;;;;;22.90;12.32;;;3.10;1.00;;;;;;5049262;28;20221;-85
2022/12/11 09:48:22;;;;;;;22.98;11.90;;;3.20;1.00;;;;;;5047763;28;20181;-84
2022/12/11 09:50:52;;;;;;;21.58;12.55;;;3.20;1.00;;;;;;5048202;28;20182;-85
2022/12/11 09:53:28;;;;;;;20.65;11.95;;;3.20;1.00;;;;;;5054779;28;20186;-85
2022/12/11 09:56:06;;;;;;;24.77;12.02;;;3.20;1.00;;;;;;5045168;28;20631;-84
2022/12/11 09:58:34;;;;;;;20.52;11.88;;;3.20;1.00;;;;;;5050362;28;20237;-85
2022/12/11 10:01:04;;;;;;;18.80;12.43;;;3.20;1.00;;;;;;5051081;28;20185;-85
2022/12/11 10:03:59;;;;;;;22.35;12.15;;;3.20;1.00;;;;;;5048609;28;20654;-85
2022/12/11 10:06:35;;;;;;;25.40;13.15;;;3.30;1.00;;;;;;5044151;28;20293;-84
2022/12/11 10:09:33;;;;;;;26.60;11.88;;;3.30;1.00;;;;;;5053739;28;20276;-85
2022/12/11 10:12:12;;;;;;;21.42;12.02;;;3.30;1.00;;;;;;5054031;28;20217;-84
2022/12/11 10:14:53;;;;;;;24.52;13.10;;;3.30;1.00;;;;;;5048993;28;20193;-84
2022/12/11 10:17:24;;;;;;;25.10;13.00;;;3.30;1.00;;;;;;5035110;28;20194;-83
2022/12/11 10:19:50;;;;;;;18.95;11.30;;;3.30;99.90;;;;;;5046953;28;20193;-84
2022/12/11 10:22:29;;;;;;;20.95;11.50;;;3.30;99.90;;;;;;5045640;28;20486;-85
2022/12/11 10:25:18;;;;;;;19.65;11.00;;;3.30;99.90;;;;;;5047437;28;20190;-86
2022/12/11 10:27:44;;;;;;;20.02;11.20;;;3.30;99.90;;;;;;5034048;28;20186;-84
2022/12/11 10:30:26;;;;;;;16.55;11.38;;;3.30;99.90;;;;;;5038136;28;20598;-85
2022/12/11 10:33:31;;;;;;;22.50;13.50;;;3.30;99.90;;;;;;5046378;28;20270;-85
2022/12/11 10:35:58;;;;;;;19.40;11.45;;;3.30;99.90;;;;;;5049626;28;20209;-85
2022/12/11 10:38:37;;;;;;;20.10;12.48;;;3.40;99.90;;;;;;5044991;28;20217;-85
2022/12/11 10:41:16;;;;;;;16.77;9.98;;;3.40;99.90;;;;;;5047052;28;20599;-86
2022/12/11 10:43:47;;;;;;;18.30;10.23;;;3.40;99.90;;;;;;5045008;28;20265;-87
2022/12/11 10:46:15;;;;;;;17.33;10.88;;;3.50;99.90;;;;;;5040914;28;20200;-87
2022/12/11 10:48:49;;;;;;;17.33;9.63;;;3.50;99.90;;;;;;5038043;28;20235;-87
2022/12/11 10:51:15;;;;;;;15.77;10.13;;;3.60;99.90;;;;;;5044612;28;20200;-87
2022/12/11 10:53:44;;;;;;;17.83;9.73;;;3.60;99.90;;;;;;5051030;28;20178;-86
2022/12/11 10:56:23;;;;;;;16.77;10.18;;;3.80;99.90;;;;;;5043050;28;20206;-87
2022/12/11 10:58:56;;;;;;;16.20;10.48;;;3.90;42.20;;;;;;5047684;28;20261;-87
2022/12/11 11:01:24;;;;;;;14.85;9.90;;;4.10;1.00;;;;;;5044678;28;20242;-86
2022/12/11 11:04:05;;;;;;;17.60;10.82;;;4.30;1.00;;;;;;5046448;28;20637;-87
2022/12/11 11:06:32;;;;;;;13.23;9.52;;;4.30;1.00;;;;;;5048109;28;20204;-87
2022/12/11 11:09:00;;;;;;;14.57;9.48;;;4.30;1.00;;;;;;5047541;28;20691;-86
2022/12/11 11:11:37;;;;;;;16.90;10.45;;;4.30;1.00;;;;;;5050973;28;20213;-87
2022/12/11 11:14:15;;;;;;;15.30;8.95;;;4.40;1.00;;;;;;5039602;28;20252;-87
2022/12/11 11:16:44;;;;;;;15.77;9.38;;;4.40;1.00;;;;;;5041144;28;20248;-88
2022/12/11 11:19:34;;;;;;;16.88;8.80;;;4.40;1.00;;;;;;5030950;28;20182;-87
2022/12/11 11:22:13;;;;;;;13.10;9.00;;;4.40;1.00;;;;;;5046532;28;20190;-86
2022/12/11 11:24:59;;;;;;;12.43;8.18;;;4.50;1.00;;;;;;5043676;28;20643;-87
2022/12/11 11:27:34;;;;;;;19.23;9.50;;;4.50;1.00;;;;;;5049028;28;20204;-87
2022/12/11 11:30:07;;;;;;;13.95;9.52;;;4.60;1.00;;;;;;5051605;28;20529;-87
2022/12/11 11:32:39;;;;;;;12.73;8.98;;;4.70;1.00;;;;;;5045878;28;20300;-87
2022/12/11 11:35:17;;;;;;;13.10;7.93;;;5.00;1.00;;;;;;5043601;28;20178;-86
2022/12/11 11:38:01;;;;;;;12.43;8.20;;;5.20;1.00;;;;;;5038249;28;20188;-88
2022/12/11 11:40:51;;;;;;;13.43;7.78;;;5.40;1.00;;;;;;5046202;28;20562;-87
2022/12/11 11:43:34;;;;;;;11.90;7.50;;;5.50;1.00;;;;;;5033017;28;20190;-87
2022/12/11 11:46:09;;;;;;;12.32;7.43;;;5.50;1.00;;;;;;5041186;28;20275;-87
2022/12/11 11:48:47;;;;;;;10.80;7.50;;;5.50;99.90;;;;;;5050257;28;20204;-87
2022/12/11 11:51:41;;;;;;;11.32;7.30;;;5.70;99.90;;;;;;5042536;28;20339;-87
2022/12/11 11:54:31;;;;;;;13.05;8.50;;;5.90;99.90;;;;;;5040147;28;20191;-87
2022/12/11 11:56:57;;;;;;;12.60;8.13;;;6.20;99.90;;;;;;5037983;28;20209;-87
2022/12/11 11:59:29;;;;;;;11.85;8.35;;;6.40;99.90;;;;;;5034122;28;20201;-87
2022/12/11 12:01:56;;;;;;;20.05;11.48;;;6.50;99.90;;;;;;5047202;28;20197;-87
2022/12/11 12:04:24;;;;;;;11.00;7.60;;;6.90;99.90;;;;;;5037460;28;20226;-86
2022/12/11 12:07:07;;;;;;;11.43;7.40;;;7.60;99.90;;;;;;5049739;28;20468;-87
2022/12/11 12:09:39;;;;;;;12.20;8.77;;;7.80;99.90;;;;;;5033506;28;20464;-87
2022/12/11 12:12:28;;;;;;;11.03;7.40;;;7.70;99.90;;;;;;5037816;28;20525;-88
2022/12/11 12:15:00;;;;;;;13.70;8.40;;;7.80;99.90;;;;;;5043975;28;20968;-87
2022/12/11 12:17:41;;;;;;;14.17;8.50;;;7.80;99.90;;;;;;5040499;28;20515;-87
2022/12/11 12:20:37;;;;;;;12.50;7.77;;;7.80;99.90;;;;;;5038135;28;20464;-86
2022/12/11 12:23:14;;;;;;;18.50;9.07;;;7.70;99.90;;;;;;5036806;28;20475;-87
2022/12/11 12:25:46;;;;;;;13.60;8.83;;;7.60;99.90;;;;;;5042102;28;20455;-88
2022/12/11 12:29:03;;;;;;;15.57;9.25;;;7.50;99.90;;;;;;5038609;28;20435;-88
2022/12/11 12:31:31;;;;;;;15.82;10.20;;;7.30;99.90;;;;;;5037188;28;20217;-86
2022/12/11 12:34:11;;;;;;;15.00;9.40;;;7.10;99.90;;;;;;5035478;28;20233;-87
2022/12/11 12:36:55;;;;;;;13.10;8.32;;;6.90;99.90;;;;;;5040334;28;20542;-86
2022/12/11 12:39:55;;;;;;;14.68;9.85;;;6.70;99.90;;;;;;5042739;28;20184;-87
2022/12/11 12:43:04;;;;;;;18.20;9.15;;;6.50;99.90;;;;;;5036637;28;20209;-87
2022/12/11 12:45:33;;;;;;;13.95;8.68;;;6.50;99.90;;;;;;5048967;28;20208;-87
2022/12/11 12:48:00;;;;;;;13.77;9.73;;;6.40;99.90;;;;;;5045644;28;20662;-87
2022/12/11 12:50:35;;;;;;;16.75;8.80;;;6.30;99.90;;;;;;5041100;28;20194;-86
2022/12/11 12:53:01;;;;;;;15.93;10.25;;;6.10;99.90;;;;;;5040968;28;20201;-88
2022/12/11 12:55:30;;;;;;;12.70;8.98;;;5.90;99.90;;;;;;5045408;28;20304;-88
2022/12/11 12:58:06;;;;;;;13.98;8.70;;;5.90;99.90;;;;;;5042827;28;20197;-87
2022/12/11 13:00:42;;;;;;;15.35;9.40;;;5.80;99.90;;;;;;5035621;28;20316;-88
2022/12/11 13:03:11;;;;;;;14.85;9.68;;;5.60;99.90;;;;;;5038212;28;20268;-88
2022/12/11 13:05:40;;;;;;;13.38;10.13;;;5.50;99.90;;;;;;5038287;28;20229;-87
2022/12/11 13:08:07;;;;;;;14.95;9.40;;;5.40;99.90;;;;;;5042273;28;20194;-88
2022/12/11 13:10:35;;;;;;;14.88;9.10;;;5.40;99.90;;;;;;5032671;28;20190;-88
2022/12/11 13:13:04;;;;;;;19.17;11.15;;;5.30;99.90;;;;;;5031162;28;20233;-88
2022/12/11 13:15:39;;;;;;;13.57;9.55;;;5.20;99.90;;;;;;5035697;28;20255;-88